sensor_id;sensor_type;location;lat;lon;timestamp;pressure;altitude;pressure_sealevel;temperature;humidity
72794;BME280;63436;26.334;50.194;2022-12-18T00:01:30;61397.39;;;15.33;65.05
72794;BME280;63436;26.334;50.194;2022-12-18T00:03:55;61397.39;;;15.81;65.05
72794;BME280;63436;26.334;50.194;2022-12-18T00:06:20;61397.39;;;15.33;65.05
72794;BME280;63436;26.334;50.194;2022-12-18T00:08:46;61397.39;;;15.33;65.05
72794;BME280;63436;26.334;50.194;2022-12-18T00:11:12;61397.39;;;15.09;65.05
72794;BME280;63436;26.334;50.194;2022-12-18T00:13:36;61397.39;;;15.09;65.05
72794;BME280;63436;26.334;50.194;2022-12-18T00:16:05;61397.39;;;15.33;65.05
72794;BME280;63436;26.334;50.194;2022-12-18T00:18:27;61397.39;;;15.57;65.05
72794;BME280;63436;26.334;50.194;2022-12-18T00:21:01;61397.39;;;15.33;65.05
72794;BME280;63436;26.334;50.194;2022-12-18T00:23:19;61397.39;;;15.33;65.05
72794;BME280;63436;26.334;50.194;2022-12-18T00:25:44;61397.39;;;15.33;65.05
72794;BME280;63436;26.334;50.194;2022-12-18T00:28:09;61397.39;;;15.33;65.05
72794;BME280;63436;26.334;50.194;2022-12-18T00:30:35;61397.39;;;15.33;65.05
72794;BME280;63436;26.334;50.194;2022-12-18T00:33:00;61397.39;;;15.57;65.05
72794;BME280;63436;26.334;50.194;2022-12-18T00:35:25;61397.39;;;15.33;65.05
72794;BME280;63436;26.334;50.194;2022-12-18T00:37:50;61397.39;;;15.57;65.05
72794;BME280;63436;26.334;50.194;2022-12-18T00:40:16;61397.39;;;15.57;65.05
72794;BME280;63436;26.334;50.194;2022-12-18T00:42:41;61397.39;;;15.57;65.05
72794;BME280;63436;26.334;50.194;2022-12-18T00:45:07;61397.39;;;15.33;65.05
72794;BME280;63436;26.334;50.194;2022-12-18T00:47:32;61397.39;;;15.33;65.05
72794;BME280;63436;26.334;50.194;2022-12-18T00:49:57;61397.39;;;15.09;65.05
72794;BME280;63436;26.334;50.194;2022-12-18T00:52:22;61397.39;;;15.57;65.05
72794;BME280;63436;26.334;50.194;2022-12-18T00:54:47;61397.39;;;15.57;65.05
72794;BME280;63436;26.334;50.194;2022-12-18T00:57:13;61397.39;;;15.33;65.05
72794;BME280;63436;26.334;50.194;2022-12-18T00:59:39;61397.39;;;15.57;65.05
72794;BME280;63436;26.334;50.194;2022-12-18T01:02:04;61397.39;;;15.57;65.05
72794;BME280;63436;26.334;50.194;2022-12-18T01:04:31;61397.39;;;15.57;65.05
72794;BME280;63436;26.334;50.194;2022-12-18T01:06:55;61397.39;;;15.81;65.05
72794;BME280;63436;26.334;50.194;2022-12-18T01:09:20;61397.39;;;16.05;65.05
72794;BME280;63436;26.334;50.194;2022-12-18T01:11:46;61397.39;;;15.81;65.05
72794;BME280;63436;26.334;50.194;2022-12-18T01:14:11;61397.39;;;15.57;65.05
72794;BME280;63436;26.334;50.194;2022-12-18T01:16:37;61397.39;;;15.57;65.05
72794;BME280;63436;26.334;50.194;2022-12-18T01:19:02;61397.39;;;15.57;65.05
72794;BME280;63436;26.334;50.194;2022-12-18T01:21:28;61397.39;;;15.57;65.05
72794;BME280;63436;26.334;50.194;2022-12-18T01:23:55;61397.39;;;15.57;65.05
72794;BME280;63436;26.334;50.194;2022-12-18T01:26:19;61397.39;;;15.57;65.05
72794;BME280;63436;26.334;50.194;2022-12-18T01:28:44;61397.39;;;16.05;65.05
72794;BME280;63436;26.334;50.194;2022-12-18T01:31:12;61397.39;;;15.57;65.05
72794;BME280;63436;26.334;50.194;2022-12-18T01:33:36;61397.39;;;15.33;65.05
72794;BME280;63436;26.334;50.194;2022-12-18T01:36:02;61397.39;;;15.57;65.05
72794;BME280;63436;26.334;50.194;2022-12-18T01:38:28;61397.39;;;15.33;65.05
72794;BME280;63436;26.334;50.194;2022-12-18T01:40:57;61397.39;;;15.57;65.05
72794;BME280;63436;26.334;50.194;2022-12-18T01:43:17;61397.39;;;15.57;65.05
72794;BME280;63436;26.334;50.194;2022-12-18T01:45:43;61397.39;;;15.57;65.05
72794;BME280;63436;26.334;50.194;2022-12-18T01:48:09;61397.39;;;15.57;65.05
72794;BME280;63436;26.334;50.194;2022-12-18T01:50:37;61397.39;;;15.57;65.05
72794;BME280;63436;26.334;50.194;2022-12-18T01:53:11;61397.39;;;15.81;65.05
72794;BME280;63436;26.334;50.194;2022-12-18T01:55:28;61397.39;;;15.57;65.05
72794;BME280;63436;26.334;50.194;2022-12-18T01:57:52;61397.39;;;15.57;65.05
72794;BME280;63436;26.334;50.194;2022-12-18T02:00:18;61397.39;;;15.57;65.05
72794;BME280;63436;26.334;50.194;2022-12-18T02:02:41;61397.39;;;15.57;65.05
72794;BME280;63436;26.334;50.194;2022-12-18T02:05:07;61397.39;;;15.57;65.05
72794;BME280;63436;26.334;50.194;2022-12-18T02:07:40;61397.39;;;15.81;65.05
72794;BME280;63436;26.334;50.194;2022-12-18T02:10:00;61397.39;;;15.57;65.05
72794;BME280;63436;26.334;50.194;2022-12-18T02:12:24;61397.39;;;15.57;65.05
72794;BME280;63436;26.334;50.194;2022-12-18T02:14:54;61397.39;;;15.09;65.05
72794;BME280;63436;26.334;50.194;2022-12-18T02:17:18;61397.39;;;15.57;65.05
72794;BME280;63436;26.334;50.194;2022-12-18T02:19:53;61397.39;;;15.57;65.05
72794;BME280;63436;26.334;50.194;2022-12-18T02:22:11;61397.39;;;15.57;65.05
72794;BME280;63436;26.334;50.194;2022-12-18T02:24:35;61397.39;;;15.57;65.05
72794;BME280;63436;26.334;50.194;2022-12-18T02:26:57;61397.39;;;16.05;65.05
72794;BME280;63436;26.334;50.194;2022-12-18T02:29:24;61397.39;;;15.57;65.05
72794;BME280;63436;26.334;50.194;2022-12-18T02:31:50;61397.39;;;15.81;65.05
72794;BME280;63436;26.334;50.194;2022-12-18T02:34:12;61397.39;;;15.57;65.05
72794;BME280;63436;26.334;50.194;2022-12-18T02:36:39;61397.39;;;15.81;65.05
72794;BME280;63436;26.334;50.194;2022-12-18T02:39:02;61397.39;;;15.81;65.05
72794;BME280;63436;26.334;50.194;2022-12-18T02:41:28;61397.39;;;16.05;65.05
72794;BME280;63436;26.334;50.194;2022-12-18T02:43:57;61397.39;;;15.81;65.05
72794;BME280;63436;26.334;50.194;2022-12-18T02:46:30;61397.39;;;15.81;65.05
72794;BME280;63436;26.334;50.194;2022-12-18T02:48:43;61397.39;;;15.57;65.05
72794;BME280;63436;26.334;50.194;2022-12-18T02:51:16;61397.39;;;15.57;65.05
72794;BME280;63436;26.334;50.194;2022-12-18T02:53:45;61397.39;;;15.81;65.05
72794;BME280;63436;26.334;50.194;2022-12-18T02:56:05;61397.39;;;15.57;65.05
72794;BME280;63436;26.334;50.194;2022-12-18T02:58:32;61397.39;;;15.57;65.05
72794;BME280;63436;26.334;50.194;2022-12-18T03:00:58;61397.39;;;15.57;65.05
72794;BME280;63436;26.334;50.194;2022-12-18T03:03:23;61397.39;;;15.57;65.05
72794;BME280;63436;26.334;50.194;2022-12-18T03:05:47;61397.39;;;15.81;65.05
72794;BME280;63436;26.334;50.194;2022-12-18T03:08:12;61397.39;;;15.57;65.05
72794;BME280;63436;26.334;50.194;2022-12-18T03:10:39;61397.39;;;15.81;65.05
72794;BME280;63436;26.334;50.194;2022-12-18T03:13:03;61397.39;;;15.81;65.05
72794;BME280;63436;26.334;50.194;2022-12-18T03:15:29;61397.39;;;15.81;65.05
72794;BME280;63436;26.334;50.194;2022-12-18T03:17:55;61397.39;;;15.81;65.05
72794;BME280;63436;26.334;50.194;2022-12-18T03:20:18;61397.39;;;16.05;65.05
72794;BME280;63436;26.334;50.194;2022-12-18T03:22:42;61397.39;;;15.81;65.05
72794;BME280;63436;26.334;50.194;2022-12-18T03:25:09;61397.39;;;15.81;65.05
72794;BME280;63436;26.334;50.194;2022-12-18T03:27:33;61397.39;;;15.81;65.05
72794;BME280;63436;26.334;50.194;2022-12-18T03:30:01;61397.39;;;15.57;65.05
72794;BME280;63436;26.334;50.194;2022-12-18T03:32:27;61397.39;;;16.05;65.05
72794;BME280;63436;26.334;50.194;2022-12-18T03:34:50;61397.39;;;16.05;65.05
72794;BME280;63436;26.334;50.194;2022-12-18T03:37:13;61397.39;;;16.05;65.05
72794;BME280;63436;26.334;50.194;2022-12-18T03:39:38;61397.39;;;16.05;65.05
72794;BME280;63436;26.334;50.194;2022-12-18T03:42:08;61397.39;;;16.05;65.05
72794;BME280;63436;26.334;50.194;2022-12-18T03:44:34;61397.39;;;16.05;65.05
72794;BME280;63436;26.334;50.194;2022-12-18T03:47:01;61397.39;;;16.05;65.05
72794;BME280;63436;26.334;50.194;2022-12-18T03:49:25;61397.39;;;16.05;65.05
72794;BME280;63436;26.334;50.194;2022-12-18T03:51:50;61397.39;;;16.05;65.05
72794;BME280;63436;26.334;50.194;2022-12-18T03:54:12;61397.39;;;16.53;65.05
72794;BME280;63436;26.334;50.194;2022-12-18T03:56:41;61397.39;;;16.05;65.05
72794;BME280;63436;26.334;50.194;2022-12-18T03:59:03;61397.39;;;16.05;65.05
72794;BME280;63436;26.334;50.194;2022-12-18T04:01:32;61397.39;;;16.53;65.05
72794;BME280;63436;26.334;50.194;2022-12-18T04:03:54;61397.39;;;16.05;65.05
72794;BME280;63436;26.334;50.194;2022-12-18T04:06:19;61397.39;;;16.05;65.05
72794;BME280;63436;26.334;50.194;2022-12-18T04:08:44;61397.39;;;16.53;65.05
72794;BME280;63436;26.334;50.194;2022-12-18T04:11:09;61397.39;;;16.29;65.05
72794;BME280;63436;26.334;50.194;2022-12-18T04:13:37;61397.39;;;16.05;65.05
72794;BME280;63436;26.334;50.194;2022-12-18T04:16:00;61397.39;;;16.05;65.05
72794;BME280;63436;26.334;50.194;2022-12-18T04:18:25;61397.39;;;16.05;65.05
72794;BME280;63436;26.334;50.194;2022-12-18T04:20:51;61397.39;;;16.05;65.05
72794;BME280;63436;26.334;50.194;2022-12-18T04:23:17;61397.39;;;16.05;65.05
72794;BME280;63436;26.334;50.194;2022-12-18T04:25:43;61397.39;;;16.05;65.05
72794;BME280;63436;26.334;50.194;2022-12-18T04:28:08;61397.39;;;16.29;65.05
72794;BME280;63436;26.334;50.194;2022-12-18T04:30:33;61397.39;;;16.53;65.05
72794;BME280;63436;26.334;50.194;2022-12-18T04:32:58;61397.39;;;16.53;65.05
72794;BME280;63436;26.334;50.194;2022-12-18T04:35:24;61397.39;;;16.29;65.05
72794;BME280;63436;26.334;50.194;2022-12-18T04:37:50;61397.39;;;16.29;65.05
72794;BME280;63436;26.334;50.194;2022-12-18T04:40:15;61397.39;;;16.05;65.05
72794;BME280;63436;26.334;50.194;2022-12-18T04:42:41;61397.39;;;16.05;65.05
72794;BME280;63436;26.334;50.194;2022-12-18T04:45:07;61397.39;;;16.05;65.05
72794;BME280;63436;26.334;50.194;2022-12-18T04:47:31;61397.39;;;16.53;65.05
72794;BME280;63436;26.334;50.194;2022-12-18T04:49:57;61397.39;;;16.05;65.05
72794;BME280;63436;26.334;50.194;2022-12-18T04:52:22;61397.39;;;16.05;65.05
72794;BME280;63436;26.334;50.194;2022-12-18T04:54:47;61397.39;;;16.05;65.05
72794;BME280;63436;26.334;50.194;2022-12-18T04:57:13;61397.39;;;16.29;65.05
72794;BME280;63436;26.334;50.194;2022-12-18T04:59:38;61397.39;;;16.05;65.05
72794;BME280;63436;26.334;50.194;2022-12-18T05:02:04;61397.39;;;16.05;65.05
72794;BME280;63436;26.334;50.194;2022-12-18T05:04:29;61397.39;;;16.05;65.05
72794;BME280;63436;26.334;50.194;2022-12-18T05:06:54;61397.39;;;16.05;65.05
72794;BME280;63436;26.334;50.194;2022-12-18T05:09:20;61397.39;;;16.05;65.05
72794;BME280;63436;26.334;50.194;2022-12-18T05:11:45;61397.39;;;16.05;65.05
72794;BME280;63436;26.334;50.194;2022-12-18T05:14:10;61397.39;;;16.05;65.05
72794;BME280;63436;26.334;50.194;2022-12-18T05:16:36;61397.39;;;16.05;65.05
72794;BME280;63436;26.334;50.194;2022-12-18T05:19:02;61397.39;;;16.05;65.05
72794;BME280;63436;26.334;50.194;2022-12-18T05:21:28;61397.39;;;16.29;65.05
72794;BME280;63436;26.334;50.194;2022-12-18T05:23:53;61397.39;;;16.29;65.05
72794;BME280;63436;26.334;50.194;2022-12-18T05:26:18;61397.39;;;16.29;65.05
72794;BME280;63436;26.334;50.194;2022-12-18T05:28:44;61397.39;;;16.29;65.05
72794;BME280;63436;26.334;50.194;2022-12-18T05:31:10;61397.39;;;16.29;65.05
72794;BME280;63436;26.334;50.194;2022-12-18T05:33:35;61397.39;;;16.05;65.05
72794;BME280;63436;26.334;50.194;2022-12-18T05:36:02;61397.39;;;16.05;65.05
72794;BME280;63436;26.334;50.194;2022-12-18T05:38:27;61397.39;;;16.05;65.05
72794;BME280;63436;26.334;50.194;2022-12-18T05:40:52;61397.39;;;16.05;65.05
72794;BME280;63436;26.334;50.194;2022-12-18T05:43:18;61397.39;;;15.81;65.05
72794;BME280;63436;26.334;50.194;2022-12-18T05:45:42;61397.39;;;15.81;65.05
72794;BME280;63436;26.334;50.194;2022-12-18T05:48:09;61397.39;;;15.81;65.05
72794;BME280;63436;26.334;50.194;2022-12-18T05:50:35;61397.39;;;15.57;65.05
72794;BME280;63436;26.334;50.194;2022-12-18T05:52:59;61397.39;;;15.57;65.05
72794;BME280;63436;26.334;50.194;2022-12-18T05:55:24;61397.39;;;15.57;65.05
72794;BME280;63436;26.334;50.194;2022-12-18T05:57:50;61397.39;;;15.57;65.05
72794;BME280;63436;26.334;50.194;2022-12-18T06:00:16;61397.39;;;15.57;65.05
72794;BME280;63436;26.334;50.194;2022-12-18T06:02:41;61397.39;;;15.57;65.05
72794;BME280;63436;26.334;50.194;2022-12-18T06:05:06;61397.39;;;15.81;65.05
72794;BME280;63436;26.334;50.194;2022-12-18T06:07:31;61397.39;;;15.57;65.05
72794;BME280;63436;26.334;50.194;2022-12-18T06:09:57;61397.39;;;15.57;65.05
72794;BME280;63436;26.334;50.194;2022-12-18T06:12:23;61397.39;;;15.57;65.05
72794;BME280;63436;26.334;50.194;2022-12-18T06:14:49;61397.39;;;15.33;65.05
72794;BME280;63436;26.334;50.194;2022-12-18T06:17:14;61397.39;;;15.57;65.05
72794;BME280;63436;26.334;50.194;2022-12-18T06:19:39;61397.39;;;15.57;65.05
72794;BME280;63436;26.334;50.194;2022-12-18T06:22:06;61397.39;;;15.09;65.05
72794;BME280;63436;26.334;50.194;2022-12-18T06:24:30;61397.39;;;15.57;65.05
72794;BME280;63436;26.334;50.194;2022-12-18T06:26:55;61397.39;;;15.09;65.05
72794;BME280;63436;26.334;50.194;2022-12-18T06:29:21;61397.39;;;15.09;65.05
72794;BME280;63436;26.334;50.194;2022-12-18T06:31:46;61397.39;;;15.09;65.05
72794;BME280;63436;26.334;50.194;2022-12-18T06:34:12;61397.39;;;15.09;65.05
72794;BME280;63436;26.334;50.194;2022-12-18T06:36:38;61397.39;;;15.09;65.05
72794;BME280;63436;26.334;50.194;2022-12-18T06:39:03;61397.39;;;15.09;65.05
72794;BME280;63436;26.334;50.194;2022-12-18T06:41:28;61397.39;;;15.09;65.05
72794;BME280;63436;26.334;50.194;2022-12-18T06:43:53;61397.39;;;15.09;65.05
72794;BME280;63436;26.334;50.194;2022-12-18T06:46:19;61397.39;;;15.09;65.05
72794;BME280;63436;26.334;50.194;2022-12-18T06:48:47;61397.39;;;14.85;65.05
72794;BME280;63436;26.334;50.194;2022-12-18T06:51:10;61397.39;;;15.09;65.05
72794;BME280;63436;26.334;50.194;2022-12-18T06:53:35;61397.39;;;15.09;65.05
72794;BME280;63436;26.334;50.194;2022-12-18T06:56:01;61397.39;;;14.85;65.05
72794;BME280;63436;26.334;50.194;2022-12-18T06:58:27;61397.39;;;14.62;65.05
72794;BME280;63436;26.334;50.194;2022-12-18T07:00:52;61397.39;;;14.85;65.05
72794;BME280;63436;26.334;50.194;2022-12-18T07:03:17;61397.39;;;14.62;65.05
72794;BME280;63436;26.334;50.194;2022-12-18T07:05:43;61397.39;;;14.62;65.05
72794;BME280;63436;26.334;50.194;2022-12-18T07:08:08;61397.39;;;14.62;65.05
72794;BME280;63436;26.334;50.194;2022-12-18T07:10:33;61397.39;;;14.62;65.05
72794;BME280;63436;26.334;50.194;2022-12-18T07:12:59;61397.39;;;14.62;65.05
72794;BME280;63436;26.334;50.194;2022-12-18T07:15:24;61397.39;;;14.62;65.05
72794;BME280;63436;26.334;50.194;2022-12-18T07:17:49;61397.39;;;14.62;65.05
72794;BME280;63436;26.334;50.194;2022-12-18T07:20:15;61397.39;;;14.62;65.05
72794;BME280;63436;26.334;50.194;2022-12-18T07:22:40;61397.39;;;15.09;65.05
72794;BME280;63436;26.334;50.194;2022-12-18T07:25:06;61397.39;;;14.38;65.05
72794;BME280;63436;26.334;50.194;2022-12-18T07:27:31;61397.39;;;14.38;65.05
72794;BME280;63436;26.334;50.194;2022-12-18T07:29:56;61397.39;;;14.14;65.05
72794;BME280;63436;26.334;50.194;2022-12-18T07:32:21;61397.39;;;14.38;65.05
72794;BME280;63436;26.334;50.194;2022-12-18T07:34:47;61397.39;;;14.14;65.05
72794;BME280;63436;26.334;50.194;2022-12-18T07:37:12;61397.39;;;14.14;65.05
72794;BME280;63436;26.334;50.194;2022-12-18T07:39:37;61397.39;;;14.14;65.05
72794;BME280;63436;26.334;50.194;2022-12-18T07:42:03;61397.39;;;14.14;65.05
72794;BME280;63436;26.334;50.194;2022-12-18T07:44:28;61397.39;;;13.90;65.05
72794;BME280;63436;26.334;50.194;2022-12-18T07:46:53;61397.39;;;14.14;65.05
72794;BME280;63436;26.334;50.194;2022-12-18T07:49:19;61397.39;;;14.14;65.05
72794;BME280;63436;26.334;50.194;2022-12-18T07:51:45;61397.39;;;13.66;65.05
72794;BME280;63436;26.334;50.194;2022-12-18T07:54:10;61397.39;;;13.90;65.05
72794;BME280;63436;26.334;50.194;2022-12-18T07:56:35;61397.39;;;14.14;65.05
72794;BME280;63436;26.334;50.194;2022-12-18T07:59:00;61397.39;;;13.90;65.05
72794;BME280;63436;26.334;50.194;2022-12-18T08:01:26;61397.39;;;13.90;65.05
72794;BME280;63436;26.334;50.194;2022-12-18T08:03:52;61397.39;;;13.90;65.05
72794;BME280;63436;26.334;50.194;2022-12-18T08:06:16;61397.39;;;13.90;65.05
72794;BME280;63436;26.334;50.194;2022-12-18T08:08:42;61397.39;;;13.90;65.05
72794;BME280;63436;26.334;50.194;2022-12-18T08:11:07;61397.39;;;13.90;65.05
72794;BME280;63436;26.334;50.194;2022-12-18T08:13:33;61397.39;;;13.66;65.05
72794;BME280;63436;26.334;50.194;2022-12-18T08:16:00;61397.39;;;14.14;65.05
72794;BME280;63436;26.334;50.194;2022-12-18T08:18:25;61397.39;;;13.66;65.05
72794;BME280;63436;26.334;50.194;2022-12-18T08:20:50;61397.39;;;13.42;65.05
72794;BME280;63436;26.334;50.194;2022-12-18T08:23:16;61397.39;;;13.18;65.05
72794;BME280;63436;26.334;50.194;2022-12-18T08:25:41;61397.39;;;13.66;65.05
72794;BME280;63436;26.334;50.194;2022-12-18T08:28:10;61397.39;;;13.18;65.05
72794;BME280;63436;26.334;50.194;2022-12-18T08:30:31;61397.39;;;12.94;65.05
72794;BME280;63436;26.334;50.194;2022-12-18T08:32:57;61397.39;;;13.18;65.05
72794;BME280;63436;26.334;50.194;2022-12-18T08:35:22;61397.39;;;13.66;65.05
72794;BME280;63436;26.334;50.194;2022-12-18T08:37:47;61397.39;;;13.66;65.05
72794;BME280;63436;26.334;50.194;2022-12-18T08:40:13;61397.39;;;13.18;65.05
72794;BME280;63436;26.334;50.194;2022-12-18T08:42:38;61397.39;;;13.42;65.05
72794;BME280;63436;26.334;50.194;2022-12-18T08:45:04;61397.39;;;13.66;65.05
72794;BME280;63436;26.334;50.194;2022-12-18T08:47:29;61397.39;;;12.94;65.05
72794;BME280;63436;26.334;50.194;2022-12-18T08:49:55;61397.39;;;13.18;65.05
72794;BME280;63436;26.334;50.194;2022-12-18T08:52:20;61397.39;;;12.94;65.05
72794;BME280;63436;26.334;50.194;2022-12-18T08:54:45;61397.39;;;13.18;65.05
72794;BME280;63436;26.334;50.194;2022-12-18T08:57:11;61397.39;;;13.18;65.05
72794;BME280;63436;26.334;50.194;2022-12-18T08:59:37;61397.39;;;13.18;65.05
72794;BME280;63436;26.334;50.194;2022-12-18T09:02:02;61397.39;;;12.94;65.05
72794;BME280;63436;26.334;50.194;2022-12-18T09:04:27;61397.39;;;13.18;65.05
72794;BME280;63436;26.334;50.194;2022-12-18T09:06:53;61397.39;;;13.66;65.05
72794;BME280;63436;26.334;50.194;2022-12-18T09:09:18;61397.39;;;13.18;65.05
72794;BME280;63436;26.334;50.194;2022-12-18T09:11:44;61397.39;;;13.18;65.05
72794;BME280;63436;26.334;50.194;2022-12-18T09:14:10;61397.39;;;13.18;65.05
72794;BME280;63436;26.334;50.194;2022-12-18T09:16:34;61397.39;;;12.94;65.05
72794;BME280;63436;26.334;50.194;2022-12-18T09:19:02;61397.39;;;12.94;65.05
72794;BME280;63436;26.334;50.194;2022-12-18T09:21:28;61397.39;;;12.70;65.05
72794;BME280;63436;26.334;50.194;2022-12-18T09:23:52;61397.39;;;12.70;65.05
72794;BME280;63436;26.334;50.194;2022-12-18T09:26:17;61397.39;;;12.94;65.05
72794;BME280;63436;26.334;50.194;2022-12-18T09:28:41;61397.39;;;12.94;65.05
72794;BME280;63436;26.334;50.194;2022-12-18T09:31:08;61397.39;;;12.94;65.05
72794;BME280;63436;26.334;50.194;2022-12-18T09:33:32;61397.39;;;12.70;65.05
72794;BME280;63436;26.334;50.194;2022-12-18T09:35:57;61397.39;;;12.70;65.05
72794;BME280;63436;26.334;50.194;2022-12-18T09:38:23;61397.39;;;12.22;65.05
72794;BME280;63436;26.334;50.194;2022-12-18T09:40:51;61397.39;;;12.70;65.05
72794;BME280;63436;26.334;50.194;2022-12-18T09:43:18;61397.39;;;12.46;65.05
72794;BME280;63436;26.334;50.194;2022-12-18T09:45:43;61397.39;;;12.70;65.05
72794;BME280;63436;26.334;50.194;2022-12-18T09:48:05;61397.39;;;12.22;65.05
72794;BME280;63436;26.334;50.194;2022-12-18T09:50:34;61397.39;;;12.22;65.05
72794;BME280;63436;26.334;50.194;2022-12-18T09:52:59;61397.39;;;12.22;65.05
72794;BME280;63436;26.334;50.194;2022-12-18T09:55:25;61397.39;;;12.46;65.05
72794;BME280;63436;26.334;50.194;2022-12-18T09:57:53;61397.39;;;12.22;65.05
72794;BME280;63436;26.334;50.194;2022-12-18T10:00:16;61397.39;;;12.46;65.05
72794;BME280;63436;26.334;50.194;2022-12-18T10:02:39;61397.39;;;12.46;65.05
72794;BME280;63436;26.334;50.194;2022-12-18T10:05:06;61397.39;;;12.46;65.05
72794;BME280;63436;26.334;50.194;2022-12-18T10:07:37;61397.39;;;12.22;65.05
72794;BME280;63436;26.334;50.194;2022-12-18T10:10:00;61397.39;;;12.22;65.05
72794;BME280;63436;26.334;50.194;2022-12-18T10:12:25;61397.39;;;12.46;65.05
72794;BME280;63436;26.334;50.194;2022-12-18T10:14:51;61397.39;;;12.70;65.05
72794;BME280;63436;26.334;50.194;2022-12-18T10:17:19;61397.39;;;12.46;65.05
72794;BME280;63436;26.334;50.194;2022-12-18T10:19:41;61397.39;;;12.46;65.05
72794;BME280;63436;26.334;50.194;2022-12-18T10:22:11;61397.39;;;12.70;65.05
72794;BME280;63436;26.334;50.194;2022-12-18T10:24:35;61397.39;;;12.46;65.05
72794;BME280;63436;26.334;50.194;2022-12-18T10:26:58;61397.39;;;12.22;65.05
72794;BME280;63436;26.334;50.194;2022-12-18T10:29:19;61397.39;;;11.99;65.05
72794;BME280;63436;26.334;50.194;2022-12-18T10:31:44;61397.39;;;11.75;65.05
72794;BME280;63436;26.334;50.194;2022-12-18T10:34:11;61397.39;;;12.22;65.05
72794;BME280;63436;26.334;50.194;2022-12-18T10:36:36;61397.39;;;11.99;65.05
72794;BME280;63436;26.334;50.194;2022-12-18T10:41:27;61397.39;;;12.22;65.05
72794;BME280;63436;26.334;50.194;2022-12-18T10:46:20;61397.39;;;11.75;65.05
72794;BME280;63436;26.334;50.194;2022-12-18T10:48:49;61397.39;;;11.99;65.05
72794;BME280;63436;26.334;50.194;2022-12-18T10:51:08;61397.39;;;11.99;65.05
72794;BME280;63436;26.334;50.194;2022-12-18T10:53:35;61397.39;;;11.99;65.05
72794;BME280;63436;26.334;50.194;2022-12-18T10:56:00;61397.39;;;12.70;65.05
72794;BME280;63436;26.334;50.194;2022-12-18T10:58:26;61397.39;;;12.22;65.05
72794;BME280;63436;26.334;50.194;2022-12-18T11:05:41;61397.39;;;12.22;65.05
72794;BME280;63436;26.334;50.194;2022-12-18T11:08:19;61397.39;;;12.22;65.05
72794;BME280;63436;26.334;50.194;2022-12-18T11:10:33;61397.39;;;12.22;65.05
72794;BME280;63436;26.334;50.194;2022-12-18T11:15:27;61397.39;;;12.22;65.05
72794;BME280;63436;26.334;50.194;2022-12-18T11:17:50;61397.39;;;12.22;65.05
72794;BME280;63436;26.334;50.194;2022-12-18T11:20:20;61397.39;;;12.22;65.05
72794;BME280;63436;26.334;50.194;2022-12-18T11:22:40;61397.39;;;12.22;65.05
72794;BME280;63436;26.334;50.194;2022-12-18T11:25:16;61397.39;;;12.22;65.05
72794;BME280;63436;26.334;50.194;2022-12-18T11:27:29;61397.39;;;12.46;65.05
72794;BME280;63436;26.334;50.194;2022-12-18T11:32:30;61397.39;;;12.46;65.05
72794;BME280;63436;26.334;50.194;2022-12-18T11:34:48;61397.39;;;12.70;65.05
72794;BME280;63436;26.334;50.194;2022-12-18T11:37:12;61397.39;;;12.70;65.05
72794;BME280;63436;26.334;50.194;2022-12-18T11:39:40;61397.39;;;12.70;65.05
72794;BME280;63436;26.334;50.194;2022-12-18T11:42:10;61397.39;;;12.46;65.05
72794;BME280;63436;26.334;50.194;2022-12-18T11:44:34;61397.39;;;12.46;65.05
72794;BME280;63436;26.334;50.194;2022-12-18T11:46:56;61397.39;;;12.22;65.05
72794;BME280;63436;26.334;50.194;2022-12-18T11:49:22;61397.39;;;12.46;65.05
72794;BME280;63436;26.334;50.194;2022-12-18T11:51:51;61397.39;;;12.22;65.05
72794;BME280;63436;26.334;50.194;2022-12-18T11:54:13;61397.39;;;12.22;65.05
72794;BME280;63436;26.334;50.194;2022-12-18T11:56:37;61397.39;;;12.22;65.05
72794;BME280;63436;26.334;50.194;2022-12-18T11:59:08;61397.39;;;12.22;65.05
72794;BME280;63436;26.334;50.194;2022-12-18T12:01:35;61397.39;;;12.46;65.05
72794;BME280;63436;26.334;50.194;2022-12-18T12:06:21;61397.39;;;12.22;65.05
72794;BME280;63436;26.334;50.194;2022-12-18T12:08:53;61397.39;;;12.22;65.05
72794;BME280;63436;26.334;50.194;2022-12-18T12:11:14;61397.39;;;12.22;65.05
72794;BME280;63436;26.334;50.194;2022-12-18T12:13:41;61397.39;;;12.46;65.05
72794;BME280;63436;26.334;50.194;2022-12-18T12:16:09;61397.39;;;12.22;65.05
72794;BME280;63436;26.334;50.194;2022-12-18T12:18:31;61397.39;;;12.46;65.05
72794;BME280;63436;26.334;50.194;2022-12-18T12:20:56;61397.39;;;12.94;65.05
72794;BME280;63436;26.334;50.194;2022-12-18T12:23:22;61397.39;;;12.46;65.05
72794;BME280;63436;26.334;50.194;2022-12-18T12:25:44;61397.39;;;12.46;65.05
72794;BME280;63436;26.334;50.194;2022-12-18T12:28:15;61397.39;;;12.46;65.05
72794;BME280;63436;26.334;50.194;2022-12-18T12:30:39;61397.39;;;12.46;65.05
72794;BME280;63436;26.334;50.194;2022-12-18T12:33:09;61397.39;;;12.70;65.05
72794;BME280;63436;26.334;50.194;2022-12-18T12:35:31;61397.39;;;12.46;65.05
72794;BME280;63436;26.334;50.194;2022-12-18T12:37:55;61397.39;;;12.70;65.05
72794;BME280;63436;26.334;50.194;2022-12-18T12:40:17;61397.39;;;12.70;65.05
72794;BME280;63436;26.334;50.194;2022-12-18T12:42:42;61397.39;;;12.46;65.05
72794;BME280;63436;26.334;50.194;2022-12-18T12:45:13;61397.39;;;12.46;65.05
72794;BME280;63436;26.334;50.194;2022-12-18T12:47:33;61397.39;;;12.70;65.05
72794;BME280;63436;26.334;50.194;2022-12-18T12:49:55;61397.39;;;12.70;65.05
72794;BME280;63436;26.334;50.194;2022-12-18T12:52:28;61397.39;;;12.46;65.05
72794;BME280;63436;26.334;50.194;2022-12-18T12:54:47;61397.39;;;12.70;65.05
72794;BME280;63436;26.334;50.194;2022-12-18T12:57:15;61397.39;;;12.70;65.05